createdAt,value
2022-09-28T00:01:08.213Z,2.00
2022-09-28T00:03:35.361Z,1.88
2022-09-28T00:06:07.709Z,1.77
2022-09-28T00:08:35.862Z,2.00
2022-09-28T00:11:04.105Z,2.00
2022-09-28T00:13:32.947Z,2.00
2022-09-28T00:16:11.714Z,2.50
2022-09-28T00:18:38.216Z,1.75
2022-09-28T00:21:14.939Z,1.90
2022-09-28T00:24:01.151Z,1.70
2022-09-28T00:26:31.003Z,1.95
2022-09-28T00:29:00.044Z,2.10
2022-09-28T00:31:30.185Z,1.85
2022-09-28T00:33:57.252Z,1.88
2022-09-28T00:36:26.857Z,1.80
2022-09-28T00:38:53.777Z,1.85
2022-09-28T00:41:20.165Z,1.83
2022-09-28T00:43:46.670Z,1.88
2022-09-28T00:46:23.750Z,1.95
2022-09-28T00:48:57.015Z,1.75
2022-09-28T00:51:25.172Z,1.65
2022-09-28T00:53:52.695Z,1.73
2022-09-28T00:56:21.789Z,1.58
2022-09-28T00:58:51.719Z,1.83
2022-09-28T01:01:18.698Z,2.03
2022-09-28T01:03:48.501Z,1.80
2022-09-28T01:06:21.047Z,2.03
2022-09-28T01:08:51.651Z,2.05
2022-09-28T01:11:19.425Z,2.17
2022-09-28T01:13:48.391Z,2.13
2022-09-28T01:16:35.416Z,2.15
2022-09-28T01:19:29.678Z,2.30
2022-09-28T01:22:19.292Z,2.50
2022-09-28T01:24:47.465Z,2.35
2022-09-28T01:27:13.884Z,2.50
2022-09-28T01:29:48.358Z,2.60
2022-09-28T01:32:29.845Z,2.40
2022-09-28T01:34:59.764Z,2.65
2022-09-28T01:37:36.022Z,2.28
2022-09-28T01:40:04.779Z,2.78
2022-09-28T01:42:34.818Z,2.60
2022-09-28T01:45:07.894Z,2.67
2022-09-28T01:47:37.821Z,2.63
2022-09-28T01:50:13.264Z,2.42
2022-09-28T01:55:19.968Z,2.47
2022-09-28T01:57:51.689Z,2.85
2022-09-28T02:00:20.605Z,3.00
2022-09-28T02:02:54.534Z,3.40
2022-09-28T02:05:32.374Z,2.97
2022-09-28T02:08:21.535Z,3.55
2022-09-28T02:11:14.559Z,3.13
2022-09-28T02:13:46.126Z,3.60
2022-09-28T02:16:32.360Z,3.50
2022-09-28T02:18:59.048Z,4.03
2022-09-28T02:21:37.168Z,4.28
2022-09-28T02:24:10.608Z,3.35
2022-09-28T02:26:41.818Z,3.92
2022-09-28T02:29:08.342Z,4.13
2022-09-28T02:31:35.501Z,3.88
2022-09-28T02:34:02.056Z,3.88
2022-09-28T02:36:28.926Z,3.72
2022-09-28T02:38:57.680Z,3.80
2022-09-28T02:41:46.747Z,3.83
2022-09-28T02:44:57.727Z,3.30
2022-09-28T02:47:56.610Z,3.45
2022-09-28T02:51:00.821Z,3.90
2022-09-28T02:53:33.091Z,3.63
2022-09-28T02:56:08.377Z,3.65
2022-09-28T02:59:12.820Z,3.70
2022-09-28T03:01:58.230Z,3.28
2022-09-28T03:04:57.371Z,3.72
2022-09-28T03:07:36.834Z,3.60
2022-09-28T03:10:06.057Z,3.40
2022-09-28T03:12:33.523Z,3.17
2022-09-28T03:15:23.309Z,3.28
2022-09-28T03:17:50.272Z,3.30
2022-09-28T03:20:37.355Z,4.28
2022-09-28T03:23:23.777Z,4.03
2022-09-28T03:25:50.636Z,4.13
2022-09-28T03:28:17.210Z,3.70
2022-09-28T03:30:43.561Z,3.70
2022-09-28T03:33:09.923Z,4.28
2022-09-28T03:35:36.374Z,4.13
2022-09-28T03:38:02.764Z,4.68
2022-09-28T03:40:29.339Z,4.40
2022-09-28T03:42:55.821Z,4.88
2022-09-28T03:45:22.234Z,4.28
2022-09-28T03:47:49.089Z,4.50
2022-09-28T03:50:15.929Z,4.75
2022-09-28T03:52:42.403Z,5.22
2022-09-28T03:55:09.036Z,5.32
2022-09-28T03:57:35.429Z,5.32
2022-09-28T04:00:02.974Z,5.05
2022-09-28T04:02:30.459Z,5.50
2022-09-28T04:04:57.038Z,5.35
2022-09-28T04:07:24.573Z,6.20
2022-09-28T04:09:52.553Z,4.95
2022-09-28T04:12:18.947Z,5.63
2022-09-28T04:14:45.315Z,6.28
2022-09-28T04:17:11.752Z,6.20
2022-09-28T04:19:38.114Z,6.32
2022-09-28T04:22:04.911Z,6.05
2022-09-28T04:24:31.600Z,6.70
2022-09-28T04:27:17.935Z,6.90
2022-09-28T04:29:44.296Z,6.25
2022-09-28T04:32:11.911Z,7.63
2022-09-28T04:34:43.168Z,6.68
2022-09-28T04:37:10.425Z,7.38
2022-09-28T04:39:36.815Z,6.82
2022-09-28T04:42:03.443Z,7.20
2022-09-28T04:44:29.873Z,7.03
2022-09-28T04:46:56.316Z,7.32
2022-09-28T04:49:24.391Z,7.18
2022-09-28T04:51:50.786Z,7.53
2022-09-28T04:54:17.320Z,7.35
2022-09-28T04:56:43.741Z,7.07
2022-09-28T04:59:10.264Z,6.60
2022-09-28T05:01:36.928Z,7.47
2022-09-28T05:04:03.486Z,6.75
2022-09-28T05:06:30.739Z,6.65
2022-09-28T05:08:57.558Z,6.78
2022-09-28T05:11:24.111Z,6.25
2022-09-28T05:13:50.645Z,6.68
2022-09-28T05:16:17.489Z,7.10
2022-09-28T05:18:43.923Z,6.20
2022-09-28T05:21:15.155Z,6.78
2022-09-28T05:23:46.545Z,6.47
2022-09-28T05:26:13.493Z,6.72
2022-09-28T05:28:39.873Z,6.82
2022-09-28T05:31:06.359Z,6.15
2022-09-28T05:33:33.627Z,7.07
2022-09-28T05:36:01.492Z,6.28
2022-09-28T05:38:29.012Z,6.22
2022-09-28T05:40:55.985Z,5.55
2022-09-28T05:43:22.779Z,7.43
2022-09-28T05:45:54.270Z,7.45
2022-09-28T05:48:22.421Z,7.72
2022-09-28T05:50:52.732Z,6.85
2022-09-28T05:53:21.037Z,6.13
2022-09-28T05:55:48.350Z,6.45
2022-09-28T05:58:15.231Z,6.88
2022-09-28T06:00:42.063Z,6.78
2022-09-28T06:03:13.046Z,6.65
2022-09-28T06:05:39.946Z,5.53
2022-09-28T06:08:08.393Z,6.25
2022-09-28T06:10:35.139Z,5.57
2022-09-28T06:13:01.908Z,5.88
2022-09-28T06:15:30.595Z,5.55
2022-09-28T06:18:01.758Z,5.93
2022-09-28T06:20:31.323Z,5.47
2022-09-28T06:22:57.762Z,4.90
2022-09-28T06:25:24.901Z,5.20
2022-09-28T06:28:12.381Z,5.07
2022-09-28T06:30:40.125Z,4.30
2022-09-28T06:33:10.155Z,5.15
2022-09-28T06:35:36.919Z,4.80
2022-09-28T06:38:03.725Z,5.20
2022-09-28T06:40:30.494Z,4.90
2022-09-28T06:42:56.973Z,5.18
2022-09-28T06:45:25.356Z,4.32
2022-09-28T06:47:59.876Z,4.65
2022-09-28T06:50:28.492Z,3.83
2022-09-28T06:52:55.469Z,4.35
2022-09-28T06:55:22.105Z,4.07
2022-09-28T06:58:06.775Z,4.93
2022-09-28T07:00:35.278Z,4.25
2022-09-28T07:03:03.167Z,3.78
2022-09-28T07:05:30.060Z,4.65
2022-09-28T07:07:57.431Z,4.18
2022-09-28T07:10:25.988Z,4.32
2022-09-28T07:12:52.512Z,4.20
2022-09-28T07:15:19.891Z,3.60
2022-09-28T07:17:58.393Z,4.03
2022-09-28T07:20:28.006Z,4.13
2022-09-28T07:22:55.825Z,4.07
2022-09-28T07:25:24.336Z,4.47
2022-09-28T07:27:50.906Z,4.00
2022-09-28T07:30:17.629Z,3.97
2022-09-28T07:32:48.426Z,5.53
2022-09-28T07:35:15.603Z,4.40
2022-09-28T07:37:42.051Z,3.50
2022-09-28T07:40:28.064Z,5.57
2022-09-28T07:42:54.573Z,5.07
2022-09-28T07:45:24.497Z,3.17
2022-09-28T07:47:55.310Z,3.63
2022-09-28T07:50:22.391Z,4.00
2022-09-28T07:52:49.279Z,3.90
2022-09-28T07:55:15.815Z,3.42
2022-09-28T07:57:42.243Z,4.40
2022-09-28T08:00:09.239Z,3.58
2022-09-28T08:02:37.367Z,3.75
2022-09-28T08:05:04.633Z,4.05
2022-09-28T08:07:32.340Z,3.38
2022-09-28T08:09:58.844Z,3.05
2022-09-28T08:12:25.372Z,3.45
2022-09-28T08:14:52.179Z,3.92
2022-09-28T08:17:18.662Z,3.47
2022-09-28T08:20:03.479Z,3.63
2022-09-28T08:22:32.171Z,3.63
2022-09-28T08:24:58.696Z,4.10
2022-09-28T08:27:25.295Z,3.97
2022-09-28T08:29:51.725Z,5.03
2022-09-28T08:32:18.661Z,4.60
2022-09-28T08:34:45.156Z,4.90
2022-09-28T08:37:12.448Z,3.33
2022-09-28T08:39:39.214Z,3.55
2022-09-28T08:42:20.972Z,3.47
2022-09-28T08:44:58.039Z,3.55
2022-09-28T08:47:49.938Z,3.00
2022-09-28T08:50:26.401Z,4.32
2022-09-28T08:52:59.504Z,3.47
2022-09-28T08:55:31.512Z,3.45
2022-09-28T08:58:04.791Z,3.40
2022-09-28T09:00:42.568Z,3.55
2022-09-28T09:03:14.821Z,3.80
2022-09-28T09:06:18.432Z,3.47
2022-09-28T09:09:22.613Z,3.30
2022-09-28T09:12:07.694Z,3.78
2022-09-28T09:14:42.962Z,3.83
2022-09-28T09:19:54.789Z,3.25
2022-09-28T09:22:50.572Z,4.07
2022-09-28T09:25:21.688Z,3.85
2022-09-28T09:28:03.387Z,3.90
2022-09-28T09:30:43.821Z,3.42
2022-09-28T09:33:39.711Z,3.95
2022-09-28T09:36:34.732Z,4.28
2022-09-28T09:39:03.981Z,3.42
2022-09-28T09:41:48.488Z,2.45
2022-09-28T09:44:38.725Z,4.05
2022-09-28T09:47:10.181Z,4.50
2022-09-28T09:49:45.816Z,4.85
2022-09-28T09:52:21.868Z,4.20
2022-09-28T09:54:51.031Z,3.75
2022-09-28T09:59:49.604Z,4.05
2022-09-28T10:02:34.939Z,3.13
2022-09-28T10:05:10.431Z,3.10
2022-09-28T10:07:44.749Z,2.72
2022-09-28T10:10:36.409Z,2.70
2022-09-28T10:13:03.562Z,2.80
2022-09-28T10:15:35.353Z,2.92
2022-09-28T10:18:09.515Z,2.53
2022-09-28T10:20:39.457Z,2.83
2022-09-28T10:23:12.894Z,2.53
2022-09-28T10:25:39.461Z,2.50
2022-09-28T10:28:07.549Z,2.88
2022-09-28T10:30:44.347Z,2.78
2022-09-28T10:33:32.203Z,2.50
2022-09-28T10:36:04.911Z,2.45
2022-09-28T10:38:33.047Z,2.17
2022-09-28T10:41:01.755Z,2.20
2022-09-28T10:43:40.379Z,1.98
2022-09-28T10:46:12.736Z,1.73
2022-09-28T10:48:53.770Z,2.03
2022-09-28T10:51:20.335Z,1.85
2022-09-28T10:54:03.896Z,1.95
2022-09-28T10:56:37.085Z,1.83
2022-09-28T10:59:23.796Z,1.70
2022-09-28T11:02:16.933Z,1.60
2022-09-28T11:04:51.716Z,1.73
2022-09-28T11:07:20.874Z,1.63
2022-09-28T11:09:49.385Z,1.92
2022-09-28T11:12:20.096Z,1.80
2022-09-28T11:14:52.665Z,1.88
2022-09-28T11:17:27.524Z,2.03
2022-09-28T11:19:59.872Z,2.10
2022-09-28T11:22:41.792Z,2.00
2022-09-28T11:25:17.091Z,1.70
2022-09-28T11:27:52.662Z,1.60
2022-09-28T11:30:33.532Z,1.48
2022-09-28T11:33:30.097Z,1.80
2022-09-28T11:36:18.347Z,1.40
2022-09-28T11:38:54.033Z,1.60
2022-09-28T11:41:38.488Z,1.50
2022-09-28T11:44:44.821Z,1.63
2022-09-28T11:47:16.991Z,1.80
2022-09-28T11:50:00.032Z,1.70
2022-09-28T11:52:39.617Z,1.60
2022-09-28T11:55:17.615Z,1.50
2022-09-28T11:57:50.447Z,1.88
2022-09-28T12:00:21.263Z,1.42
2022-09-28T12:02:56.314Z,1.50
2022-09-28T12:05:30.259Z,1.38
2022-09-28T12:08:17.746Z,1.40
2022-09-28T12:10:55.411Z,1.70
2022-09-28T12:13:27.450Z,1.80
2022-09-28T12:17:03.728Z,1.70
2022-09-28T12:19:32.289Z,1.67
2022-09-28T12:22:11.354Z,1.75
2022-09-28T12:24:44.177Z,1.30
2022-09-28T12:27:10.524Z,1.52
2022-09-28T12:29:48.537Z,1.50
2022-09-28T12:32:43.049Z,1.63
2022-09-28T12:35:24.430Z,1.33
2022-09-28T12:38:25.773Z,1.98
2022-09-28T12:41:29.518Z,1.60
2022-09-28T12:44:08.376Z,1.80
2022-09-28T12:46:56.289Z,1.30
2022-09-28T12:50:27.263Z,1.25
2022-09-28T12:52:33.612Z,1.20
2022-09-28T12:55:36.369Z,1.60
2022-09-28T12:58:11.273Z,1.10
2022-09-28T13:01:11.467Z,1.23
2022-09-28T13:04:05.213Z,1.23
2022-09-28T13:06:53.470Z,1.35
2022-09-28T13:09:29.064Z,1.95
2022-09-28T13:12:02.042Z,1.65
2022-09-28T13:14:51.372Z,1.40
2022-09-28T13:17:17.997Z,1.00
2022-09-28T13:19:52.953Z,1.20
2022-09-28T13:22:28.533Z,1.10
2022-09-28T13:24:59.998Z,1.10
2022-09-28T13:27:34.871Z,0.95
2022-09-28T13:30:06.298Z,1.20
2022-09-28T13:32:35.936Z,1.08
2022-09-28T13:35:02.612Z,1.00
2022-09-28T13:37:29.896Z,1.10
2022-09-28T13:40:05.863Z,1.17
2022-09-28T13:42:44.929Z,1.10
2022-09-28T13:45:20.588Z,0.77
2022-09-28T13:48:17.088Z,1.10
2022-09-28T13:51:06.661Z,0.90
2022-09-28T13:53:54.353Z,1.20
2022-09-28T13:56:59.283Z,1.20
2022-09-28T13:59:30.671Z,1.17
2022-09-28T14:02:24.718Z,1.00
2022-09-28T14:05:23.330Z,0.98
2022-09-28T14:07:59.006Z,1.00
2022-09-28T14:10:51.828Z,1.10
2022-09-28T14:13:43.466Z,1.30
2022-09-28T14:16:19.502Z,1.40
2022-09-28T14:18:52.805Z,1.40
2022-09-28T14:21:22.224Z,1.25
2022-09-28T14:24:06.800Z,1.70
2022-09-28T14:26:51.836Z,1.35
2022-09-28T14:29:33.874Z,1.40
2022-09-28T14:32:09.143Z,1.33
2022-09-28T14:34:40.917Z,1.75
2022-09-28T14:37:44.100Z,1.50
2022-09-28T14:40:50.816Z,1.60
2022-09-28T14:43:28.076Z,2.10
2022-09-28T14:46:17.127Z,2.97
2022-09-28T14:49:24.959Z,2.30
2022-09-28T14:51:51.406Z,3.40
2022-09-28T14:54:21.877Z,3.63
2022-09-28T14:56:54.409Z,2.13
2022-09-28T14:59:35.996Z,3.85
2022-09-28T15:02:15.472Z,2.95
2022-09-28T15:05:00.073Z,4.00
2022-09-28T15:07:43.440Z,3.42
2022-09-28T15:10:27.500Z,4.50
2022-09-28T15:12:56.151Z,4.40
2022-09-28T15:15:43.619Z,2.13
2022-09-28T15:18:20.473Z,1.70
2022-09-28T15:20:49.134Z,0.90
2022-09-28T15:23:32.823Z,0.50
2022-09-28T15:25:59.567Z,0.60
2022-09-28T15:28:26.197Z,0.47
2022-09-28T15:31:01.305Z,0.90
2022-09-28T15:33:48.667Z,1.00
2022-09-28T15:36:29.149Z,1.02
2022-09-28T15:39:06.341Z,0.90
2022-09-28T15:41:34.401Z,0.95
2022-09-28T15:44:07.243Z,0.80
2022-09-28T15:46:36.080Z,0.90
2022-09-28T15:49:04.727Z,2.97
2022-09-28T15:51:46.175Z,2.53
2022-09-28T15:56:55.299Z,1.65
2022-09-28T15:59:32.087Z,1.70
2022-09-28T16:02:19.177Z,1.00
2022-09-28T16:04:48.181Z,1.17
2022-09-28T16:07:40.776Z,1.42
2022-09-28T16:10:13.756Z,1.13
2022-09-28T16:12:40.262Z,1.20
2022-09-28T16:15:24.222Z,0.90
2022-09-28T16:17:55.145Z,1.00
2022-09-28T16:20:29.728Z,1.15
2022-09-28T16:23:03.515Z,0.90
2022-09-28T16:25:30.033Z,1.00
2022-09-28T16:27:56.513Z,1.20
2022-09-28T16:30:29.743Z,1.10
2022-09-28T16:32:57.135Z,1.00
2022-09-28T16:35:43.792Z,1.33
2022-09-28T16:38:12.462Z,1.20
2022-09-28T16:40:41.330Z,1.00
2022-09-28T16:43:16.235Z,1.30
2022-09-28T16:45:42.832Z,1.30
2022-09-28T16:48:15.759Z,1.58
2022-09-28T16:50:42.220Z,1.33
2022-09-28T16:53:35.174Z,1.60
2022-09-28T16:56:03.975Z,1.13
2022-09-28T16:58:31.541Z,1.10
2022-09-28T17:00:58.670Z,1.30
2022-09-28T17:03:26.709Z,1.45
2022-09-28T17:05:55.057Z,1.70
2022-09-28T17:08:24.008Z,1.92
2022-09-28T17:11:14.519Z,2.00
2022-09-28T17:13:40.996Z,1.33
2022-09-28T17:16:13.711Z,1.35
2022-09-28T17:18:41.003Z,1.15
2022-09-28T17:21:15.762Z,1.30
2022-09-28T17:23:47.352Z,1.23
2022-09-28T17:26:34.825Z,1.40
2022-09-28T17:29:02.014Z,1.33
2022-09-28T17:31:29.637Z,1.40
2022-09-28T17:33:56.596Z,1.38
2022-09-28T17:36:23.635Z,1.50
2022-09-28T17:38:51.745Z,1.52
2022-09-28T17:41:21.074Z,1.55
2022-09-28T17:43:48.105Z,1.25
2022-09-28T17:46:33.640Z,1.20
2022-09-28T17:49:01.778Z,1.65
2022-09-28T17:51:34.732Z,1.35
2022-09-28T17:54:01.822Z,0.98
2022-09-28T17:56:32.070Z,1.33
2022-09-28T17:59:05.490Z,1.58
2022-09-28T18:01:38.855Z,1.50
2022-09-28T18:04:08.211Z,1.15
2022-09-28T18:06:37.371Z,1.30
2022-09-28T18:11:32.713Z,1.40
2022-09-28T18:13:59.378Z,1.40
2022-09-28T18:16:28.044Z,1.30
2022-09-28T18:18:55.027Z,1.17
2022-09-28T18:21:21.695Z,5.13
2022-09-28T18:23:48.225Z,14.25
2022-09-28T18:26:16.788Z,11.20
2022-09-28T18:28:43.443Z,11.75
2022-09-28T18:31:12.153Z,13.90
2022-09-28T18:33:51.501Z,9.52
2022-09-28T18:36:18.399Z,5.60
2022-09-28T18:38:44.988Z,6.18
2022-09-28T18:41:16.988Z,9.68
2022-09-28T18:43:49.564Z,6.70
2022-09-28T18:46:18.477Z,4.47
2022-09-28T18:48:46.407Z,3.45
2022-09-28T18:51:13.366Z,2.97
2022-09-28T18:53:40.364Z,2.83
2022-09-28T18:56:11.415Z,3.05
2022-09-28T18:58:40.150Z,2.75
2022-09-28T19:01:33.834Z,2.60
2022-09-28T19:04:06.564Z,2.45
2022-09-28T19:06:34.301Z,2.47
2022-09-28T19:09:01.855Z,2.67
2022-09-28T19:11:28.804Z,2.67
2022-09-28T19:13:55.857Z,3.60
2022-09-28T19:16:28.698Z,5.60
2022-09-28T19:18:59.179Z,4.25
2022-09-28T19:21:26.901Z,3.97
2022-09-28T19:23:55.545Z,3.80
2022-09-28T19:26:26.147Z,3.40
2022-09-28T19:28:53.729Z,3.50
2022-09-28T19:31:23.168Z,3.45
2022-09-28T19:33:50.579Z,3.55
2022-09-28T19:36:21.208Z,3.60
2022-09-28T19:38:47.813Z,3.35
2022-09-28T19:41:39.482Z,3.13
2022-09-28T19:44:11.315Z,3.65
2022-09-28T19:46:38.903Z,3.15
2022-09-28T19:49:09.232Z,3.15
2022-09-28T19:51:38.800Z,3.00
2022-09-28T19:54:11.334Z,2.67
2022-09-28T19:56:37.973Z,4.10
2022-09-28T19:59:04.705Z,3.15
2022-09-28T20:01:33.038Z,3.03
2022-09-28T20:04:00.686Z,3.50
2022-09-28T20:06:27.561Z,4.28
2022-09-28T20:08:54.508Z,4.18
2022-09-28T20:11:21.775Z,3.80
2022-09-28T20:13:48.927Z,3.28
2022-09-28T20:16:17.912Z,3.88
2022-09-28T20:18:52.549Z,3.22
2022-09-28T20:21:25.972Z,3.70
2022-09-28T20:23:56.558Z,3.35
2022-09-28T20:26:23.980Z,2.97
2022-09-28T20:28:51.916Z,3.15
2022-09-28T20:31:23.727Z,2.75
2022-09-28T20:33:51.178Z,3.25
2022-09-28T20:36:19.301Z,3.53
2022-09-28T20:38:53.940Z,2.88
2022-09-28T20:41:22.392Z,3.55
2022-09-28T20:43:53.777Z,3.55
2022-09-28T20:46:21.881Z,3.55
2022-09-28T20:48:50.536Z,2.95
2022-09-28T20:51:19.456Z,3.10
2022-09-28T20:53:51.800Z,3.42
2022-09-28T20:56:30.532Z,3.88
2022-09-28T20:58:57.493Z,3.80
2022-09-28T21:01:28.632Z,4.10
2022-09-28T21:04:05.738Z,4.07
2022-09-28T21:06:34.392Z,3.47
2022-09-28T21:09:01.787Z,3.08
2022-09-28T21:11:29.696Z,3.70
2022-09-28T21:14:01.781Z,3.42
2022-09-28T21:16:30.791Z,3.67
2022-09-28T21:18:57.943Z,3.40
2022-09-28T21:21:25.742Z,3.42
2022-09-28T21:23:56.541Z,3.63
2022-09-28T21:26:25.595Z,4.32
2022-09-28T21:28:53.914Z,3.90
2022-09-28T21:31:24.883Z,3.47
2022-09-28T21:33:54.971Z,3.55
2022-09-28T21:36:21.388Z,4.10
2022-09-28T21:38:47.955Z,4.60
2022-09-28T21:41:14.372Z,4.00
2022-09-28T21:43:40.889Z,3.50
2022-09-28T21:46:07.439Z,3.60
2022-09-28T21:48:33.922Z,3.60
2022-09-28T21:51:02.943Z,3.38
2022-09-28T21:53:32.143Z,3.50
2022-09-28T21:56:00.048Z,3.85
2022-09-28T21:58:28.885Z,3.42
2022-09-28T22:01:15.427Z,3.58
2022-09-28T22:03:47.336Z,3.28
2022-09-28T22:06:14.797Z,3.70
2022-09-28T22:08:41.681Z,5.30
2022-09-28T22:11:17.377Z,4.00
2022-09-28T22:13:49.301Z,3.85
2022-09-28T22:16:17.972Z,4.80
2022-09-28T22:18:45.233Z,4.60
2022-09-28T22:21:17.178Z,5.03
2022-09-28T22:23:44.193Z,5.18
2022-09-28T22:26:23.370Z,4.72
2022-09-28T22:28:55.086Z,5.30
2022-09-28T22:31:27.627Z,5.22
2022-09-28T22:33:54.390Z,5.30
2022-09-28T22:36:21.481Z,4.72
2022-09-28T22:38:48.547Z,4.20
2022-09-28T22:41:17.186Z,4.13
2022-09-28T22:43:44.007Z,5.10
2022-09-28T22:46:16.534Z,5.00
2022-09-28T22:48:52.162Z,4.35
2022-09-28T22:53:45.652Z,3.75
2022-09-28T22:56:18.154Z,4.15
2022-09-28T22:58:45.400Z,3.95
2022-09-28T23:01:17.276Z,4.40
2022-09-28T23:03:44.795Z,4.70
2022-09-28T23:06:12.868Z,5.20
2022-09-28T23:08:39.729Z,4.75
2022-09-28T23:11:07.095Z,4.13
2022-09-28T23:13:33.623Z,4.78
2022-09-28T23:16:02.723Z,4.85
2022-09-28T23:18:32.438Z,4.53
2022-09-28T23:21:01.617Z,4.82
2022-09-28T23:23:28.733Z,3.95
2022-09-28T23:25:56.247Z,4.47
2022-09-28T23:28:24.440Z,4.93
2022-09-28T23:30:51.564Z,4.93
2022-09-28T23:33:20.269Z,4.60
2022-09-28T23:35:47.041Z,4.47
2022-09-28T23:38:16.483Z,4.28
2022-09-28T23:43:09.279Z,4.55
2022-09-28T23:45:36.069Z,4.70
2022-09-28T23:48:03.070Z,4.07
2022-09-28T23:50:29.518Z,3.78
2022-09-28T23:52:55.926Z,4.47
2022-09-28T23:55:22.883Z,4.32
2022-09-28T23:57:49.293Z,4.30
